Port Sulphur, LA (70083)

9:44 AM CDT on August 30, 2014 (GMT -0500)
HOV / SPES / PSFH | Change Station
CLOSE
Current Station
Personal Weather Station
Location: Port Sulphur, LA
Elevation: 3 ft
Nearby Weather Stations

Elev 3 ft 29.48 °N, 89.69 °W | Updated 3 seconds ago

Partly Cloudy
Partly Cloudy
86.1 °F
Feels Like 102 °F
N
8.0
Wind Variable Wind from South
Gusts 13.0 mph

Today
High -- | Low -- °F
--% Chance of Precip.
Yesterday
High -- | Low -- °F
Precip. -- in
6:35 AM 7:23 PM
Waxing Crescent, 22% visible
Pressure 30.01 in
Visibility 7.0 miles
Clouds Few 1000 ft
Scattered Clouds 2000 ft
Overcast 4000 ft
Heat Index 102 °F
Dew Point 80 °F
Humidity 83%
Rainfall 0.00 in
Snow Depth Not available.
UV 1 out of 12
Pollen 5.40 out of 12
Air Quality Not available.
Flu Activity Not available.
SPECI KAXO 301330Z 17013KT 7SM VCTS FEW010 SCT020 OVC040 29/26 A3001 RMK SH MOVD N

More Conditions Fewer Conditions

Pressure 30.01 in
Visibility 7.0 miles
Clouds Few 1000 ft
Scattered Clouds 2000 ft
Overcast 4000 ft
Heat Index 102 °F
Dew Point 80 °F
Humidity 83%
Rainfall 0.00 in
Snow Depth Not available.
UV 1 out of 12
Pollen 5.40 out of 12
Air Quality Not available.
Flu Activity Not available.
SPECI KAXO 301330Z 17013KT 7SM VCTS FEW010 SCT020 OVC040 29/26 A3001 RMK SH MOVD N

More Conditions Fewer Conditions

10-Day Weather Forecast

Almanac

Astronomy

Aug. 30, 2014 Rise Set
Actual Time 6:35 AM CDT 7:23 PM CDT
Civil Twilight 6:11 AM CDT 7:47 PM CDT
Nautical Twilight 5:42 AM CDT 8:16 PM CDT
Astronomical Twilight 5:13 AM CDT 8:45 PM CDT
Moon 10:58 AM CDT 10:23 PM CDT
Length of Visible Light 13h 36m
Length of Day
12h 47m
Tomorrow will be 1m 41s shorter.
Waxing Crescent, 22% of the Moon is Illuminated
Today
Waxing Crescent
Sep 2
First Quarter
Sep 8
Full
Sep 15
Last Quarter
Sep 24
New

Today's Extremes

State Highs State Lows

Community

WunderPhotos

Upload Photos

1,748,528 photos uploaded!

WunderBlogs® & News

Nearby

Snow Depth

Station Depth Elevation
No new snow has been reported.

Earthquake Activity

City Distance Mag. Time & Date
No recent earthquake activity has been reported nearby.
Minimum magnitude displayed is 2.5.

Coastal Water Temperatures

Place Temperature
Pilot's Station East, SW Pass, LA 88.0 °F
Grand Isle, LA 82.9 °F
Bayou Gauche, LA 82.9 °F
Shell Beach, LA 81.0 °F

Nearby Weather Stations